Time;durP1;ratioP1;P1;durP2;ratioP2;P2;SDS_P1;SDS_P2;PMS_P1;PMS_P2;Temp;Humidity;BMP_temperature;BMP_pressure;BME280_temperature;BME280_humidity;BME280_pressure;Samples;Min_cycle;Max_cycle;Signal;HPM_P1;HPM_P2
2022/12/14 00:01:40;;;;;;;;;36.50;28.25;;;;;4.39;47.40;99631.78;5049159;28;45675;-61
2022/12/14 00:04:06;;;;;;;;;31.25;28.75;;;;;4.37;47.55;99625.53;5033031;28;46917;-60
2022/12/14 00:06:32;;;;;;;;;40.00;33.00;;;;;4.33;47.21;99605.13;5048758;28;45288;-62
2022/12/14 00:09:01;;;;;;;;;38.25;33.00;;;;;4.45;47.28;99624.03;5034700;28;46386;-60
2022/12/14 00:11:27;;;;;;;;;36.75;29.75;;;;;4.44;47.35;99627.53;5053563;28;45518;-60
2022/12/14 00:13:58;;;;;;;;;40.50;28.25;;;;;4.47;47.23;99632.94;5057402;28;45723;-62
2022/12/14 00:16:26;;;;;;;;;40.75;31.25;;;;;4.41;47.55;99624.78;5039471;28;45426;-61
2022/12/14 00:18:54;;;;;;;;;30.75;28.50;;;;;4.40;47.98;99623.88;5044246;28;45424;-60
2022/12/14 00:21:20;;;;;;;;;33.75;28.75;;;;;4.47;47.11;99632.94;5050311;28;45323;-60
2022/12/14 00:23:48;;;;;;;;;34.00;25.00;;;;;4.48;47.71;99628.53;5047866;28;45548;-61
2022/12/14 00:26:15;;;;;;;;;35.75;29.50;;;;;4.48;47.50;99636.47;5043285;28;45299;-61
2022/12/14 00:28:42;;;;;;;;;33.75;29.75;;;;;4.46;47.15;99632.88;5056616;28;45451;-62
2022/12/14 00:31:08;;;;;;;;;34.25;28.75;;;;;4.46;47.45;99627.59;5050407;28;45286;-60
2022/12/14 00:33:34;;;;;;;;;26.25;25.50;;;;;4.45;47.57;99631.06;5049388;28;46268;-62
2022/12/14 00:36:00;;;;;;;;;31.50;27.25;;;;;4.49;47.47;99614.44;5037483;28;45801;-61
2022/12/14 00:38:25;;;;;;;;;30.50;24.75;;;;;4.47;47.51;99605.56;5045620;28;45455;-60
2022/12/14 00:40:51;;;;;;;;;38.25;31.00;;;;;4.49;47.45;99607.44;5038606;28;45371;-62
2022/12/14 00:43:16;;;;;;;;;49.75;33.00;;;;;4.52;48.01;99606.59;5036260;28;46545;-61
2022/12/14 00:45:45;;;;;;;;;38.50;29.50;;;;;4.39;47.70;99590.34;5052446;28;45349;-62
2022/12/14 00:48:11;;;;;;;;;39.25;31.75;;;;;4.40;47.46;99583.31;5054507;28;48716;-61
2022/12/14 00:50:37;;;;;;;;;7.75;7.00;;;;;4.10;47.68;99533.88;5042495;28;45221;-62
2022/12/14 00:53:02;;;;;;;;;31.75;23.50;;;;;4.53;47.38;99603.13;5038337;28;45393;-60
2022/12/14 00:55:28;;;;;;;;;26.00;24.50;;;;;4.55;47.61;99596.13;5044737;28;45435;-60
2022/12/14 00:57:53;;;;;;;;;44.50;33.75;;;;;4.58;47.46;99596.22;5038665;28;45324;-60
2022/12/14 01:00:19;;;;;;;;;33.00;27.25;;;;;4.23;47.78;99537.84;5046080;28;45419;-63
2022/12/14 01:02:44;;;;;;;;;40.75;33.00;;;;;4.61;47.70;99591.94;5045007;28;47151;-59
2022/12/14 01:05:10;;;;;;;;;42.00;35.25;;;;;4.53;47.53;99576.69;5039760;28;45414;-61
2022/12/14 01:07:36;;;;;;;;;41.00;34.25;;;;;4.52;47.73;99588.09;5056217;28;45457;-61
2022/12/14 01:10:01;;;;;;;;;33.75;30.75;;;;;4.55;47.66;99599.69;5035858;28;45518;-61
2022/12/14 01:12:26;;;;;;;;;43.50;36.75;;;;;4.54;47.85;99600.53;5044663;28;45558;-62
2022/12/14 01:14:52;;;;;;;;;42.75;34.00;;;;;4.57;48.24;99607.66;5039260;28;45421;-61
2022/12/14 01:17:17;;;;;;;;;37.00;34.00;;;;;4.53;47.68;99606.66;5034372;28;45499;-61
2022/12/14 01:19:42;;;;;;;;;39.25;32.00;;;;;4.59;47.68;99621.84;5049940;28;45373;-62
2022/12/14 01:22:09;;;;;;;;;46.75;36.75;;;;;4.65;47.42;99621.13;5036979;28;56740;-60
2022/12/14 01:24:34;;;;;;;;;48.75;35.25;;;;;4.40;47.78;99597.44;5051598;28;45473;-61
2022/12/14 01:27:00;;;;;;;;;42.25;25.75;;;;;4.32;47.79;99590.09;5058700;28;45268;-61
2022/12/14 01:29:25;;;;;;;;;49.00;38.50;;;;;4.66;48.14;99642.34;5042581;28;45212;-64
2022/12/14 01:31:51;;;;;;;;;46.75;37.75;;;;;4.69;47.26;99638.91;5043096;28;45682;-61
2022/12/14 01:34:17;;;;;;;;;48.00;37.75;;;;;4.61;47.97;99628.06;5057878;28;44971;-61
2022/12/14 01:36:42;;;;;;;;;38.00;30.00;;;;;4.63;47.63;99638.72;5040240;28;45207;-62
2022/12/14 01:39:13;;;;;;;;;41.50;34.75;;;;;4.59;47.96;99635.06;5035075;28;45553;-61
2022/12/14 01:41:42;;;;;;;;;48.50;36.50;;;;;4.59;47.84;99638.59;5049148;28;46302;-61
2022/12/14 01:44:08;;;;;;;;;32.25;30.00;;;;;4.64;48.05;99629.91;5063606;28;45580;-62
2022/12/14 01:46:42;;;;;;;;;36.75;29.75;;;;;4.60;48.05;99643.06;5037642;28;45390;-61
2022/12/14 01:49:38;;;;;;;;;36.50;34.00;;;;;4.63;48.37;99644.00;5046320;28;45586;-61
2022/12/14 01:52:17;;;;;;;;;48.00;32.75;;;;;4.59;49.03;99643.00;5049868;28;45686;-62
2022/12/14 01:55:01;;;;;;;;;51.00;36.75;;;;;4.53;49.68;99637.50;5064930;28;45370;-62
2022/12/14 01:57:33;;;;;;;;;56.25;33.25;;;;;4.55;49.77;99649.03;5057677;28;45351;-63
2022/12/14 02:00:00;;;;;;;;;46.25;32.25;;;;;4.52;50.18;99638.34;5062232;28;45225;-63
2022/12/14 02:02:27;;;;;;;;;35.25;28.00;;;;;4.39;50.37;99611.50;5071407;28;45493;-62
2022/12/14 02:04:58;;;;;;;;;35.00;31.00;;;;;4.21;50.83;99579.19;5042057;28;45498;-64
2022/12/14 02:07:26;;;;;;;;;39.00;31.75;;;;;4.48;51.34;99640.00;5058142;28;45346;-62
2022/12/14 02:09:55;;;;;;;;;39.75;31.75;;;;;4.46;51.45;99639.06;5040515;28;45279;-63
2022/12/14 02:12:30;;;;;;;;;41.25;34.75;;;;;4.44;51.62;99630.19;5057814;28;45376;-64
2022/12/14 02:14:57;;;;;;;;;32.00;27.25;;;;;4.42;51.71;99623.91;5050639;28;45126;-62
2022/12/14 02:17:23;;;;;;;;;32.50;30.75;;;;;4.43;51.89;99612.50;5064390;28;44946;-63
2022/12/14 02:19:49;;;;;;;;;36.75;29.50;;;;;4.35;51.90;99601.66;5075376;28;45192;-62
2022/12/14 02:22:42;;;;;;;;;41.25;31.50;;;;;4.38;51.83;99601.78;5060428;28;45621;-61
2022/12/14 02:25:26;;;;;;;;;27.50;23.75;;;;;4.39;52.51;99595.66;5041378;28;45299;-62
2022/12/14 02:28:02;;;;;;;;;24.75;24.25;;;;;4.38;52.76;99585.03;5044744;28;45463;-62
2022/12/14 02:30:33;;;;;;;;;34.50;28.75;;;;;4.39;52.83;99579.78;5043083;28;45542;-63
2022/12/14 02:33:32;;;;;;;;;40.75;35.00;;;;;4.35;53.00;99562.00;5036942;28;45663;-62
2022/12/14 02:36:00;;;;;;;;;46.25;34.75;;;;;4.34;53.25;99560.22;5052339;28;45713;-61
2022/12/14 02:39:00;;;;;;;;;40.75;33.25;;;;;4.27;53.95;99557.34;5047217;28;45460;-60
2022/12/14 02:41:38;;;;;;;;;35.75;27.75;;;;;4.20;55.00;99572.09;5051165;28;45536;-63
2022/12/14 02:44:15;;;;;;;;;34.50;29.75;;;;;4.12;55.86;99571.84;5037368;28;45512;-61
2022/12/14 02:47:08;;;;;;;;;27.50;25.00;;;;;4.14;56.65;99567.53;5037270;28;45595;-61
2022/12/14 02:49:45;;;;;;;;;37.50;29.75;;;;;4.02;55.89;99554.78;5051446;28;45322;-61
2022/12/14 02:52:20;;;;;;;;;33.25;30.00;;;;;4.00;56.26;99566.16;5037767;28;45412;-62
2022/12/14 02:55:05;;;;;;;;;27.00;24.50;;;;;4.01;56.70;99550.34;5051106;28;46408;-62
2022/12/14 02:57:48;;;;;;;;;38.25;30.25;;;;;4.05;56.86;99543.41;5043534;28;45333;-59
2022/12/14 03:00:14;;;;;;;;;37.50;30.75;;;;;4.03;56.73;99522.22;5045788;28;45480;-61
2022/12/14 03:02:42;;;;;;;;;46.25;33.75;;;;;4.07;56.59;99533.78;5055092;28;45430;-60
2022/12/14 03:05:08;;;;;;;;;37.25;30.75;;;;;4.05;56.97;99522.28;5050414;28;45548;-62
2022/12/14 03:07:45;;;;;;;;;30.25;27.25;;;;;4.14;56.79;99535.81;5037141;28;45427;-63
2022/12/14 03:10:35;;;;;;;;;39.50;29.50;;;;;4.15;56.61;99534.94;5052261;28;45472;-63
2022/12/14 03:13:11;;;;;;;;;39.25;28.50;;;;;4.04;56.92;99515.19;5053555;28;45522;-62
2022/12/14 03:15:40;;;;;;;;;39.75;29.25;;;;;4.10;56.99;99523.31;5038143;28;46748;-59
2022/12/14 03:18:09;;;;;;;;;30.75;28.00;;;;;4.12;56.58;99532.19;5048525;28;45419;-62
2022/12/14 03:20:37;;;;;;;;;27.25;25.75;;;;;4.08;57.28;99519.72;5047441;28;45253;-63
2022/12/14 03:23:20;;;;;;;;;36.50;31.25;;;;;4.10;57.59;99533.88;5039957;28;45521;-61
2022/12/14 03:25:54;;;;;;;;;38.00;23.75;;;;;4.08;57.37;99546.16;5054662;28;45456;-60
2022/12/14 03:28:25;;;;;;;;;30.75;27.75;;;;;4.09;57.35;99537.38;5037285;28;45516;-61
2022/12/14 03:31:02;;;;;;;;;32.00;24.25;;;;;4.14;57.11;99534.88;5048272;28;45500;-61
2022/12/14 03:33:29;;;;;;;;;35.00;29.75;;;;;4.19;57.58;99531.56;5037341;28;45558;-60
2022/12/14 03:36:07;;;;;;;;;36.75;27.75;;;;;4.16;56.89;99531.44;5049806;28;46545;-61
2022/12/14 03:38:35;;;;;;;;;35.25;27.25;;;;;4.22;56.80;99522.81;5051115;28;45550;-62
2022/12/14 03:41:09;;;;;;;;;37.50;31.75;;;;;4.22;57.37;99529.00;5041998;28;45696;-60
2022/12/14 03:43:53;;;;;;;;;42.50;33.00;;;;;4.16;57.25;99531.44;5058262;28;45214;-63
2022/12/14 03:46:31;;;;;;;;;38.25;30.75;;;;;4.16;56.76;99533.22;5042468;28;47060;-61
2022/12/14 03:49:22;;;;;;;;;24.75;23.75;;;;;4.01;57.34;99512.44;5057811;28;45361;-62
2022/12/14 03:52:02;;;;;;;;;38.25;33.00;;;;;4.01;57.11;99496.56;5035462;28;45350;-61
2022/12/14 03:54:38;;;;;;;;;34.00;30.25;;;;;4.10;57.49;99506.56;5036242;28;45464;-60
2022/12/14 03:57:37;;;;;;;;;35.00;31.50;;;;;4.02;57.50;99485.16;5047664;28;47804;-61
2022/12/14 04:00:08;;;;;;;;;46.50;28.25;;;;;4.08;58.08;99498.59;5039900;28;45300;-60
2022/12/14 04:02:46;;;;;;;;;49.25;29.75;;;;;4.05;58.21;99501.13;5039777;28;45250;-60
2022/12/14 04:05:31;;;;;;;;;34.25;32.00;;;;;4.04;58.03;99505.53;5035128;28;45299;-60
2022/12/14 04:08:06;;;;;;;;;30.00;26.50;;;;;4.07;58.38;99507.34;5053457;28;45464;-61
2022/12/14 04:19:12;;;;;;;;;39.25;33.00;;;;;4.14;57.93;99472.38;5035702;28;45415;-62
2022/12/14 04:21:52;;;;;;;;;41.75;34.50;;;;;4.14;57.77;99482.00;5049060;28;45318;-62
2022/12/14 04:27:41;;;;;;;;;36.75;29.00;;;;;4.22;57.83;99478.78;5013759;28;45524;-61
2022/12/14 04:30:09;;;;;;;;;37.00;33.25;;;;;3.93;57.43;99418.84;5048213;28;46357;-61
2022/12/14 04:32:37;;;;;;;;;40.25;33.00;;;;;4.24;57.85;99476.19;5043948;28;45448;-60
2022/12/14 04:35:24;;;;;;;;;35.50;29.75;;;;;4.27;57.87;99478.91;5037977;28;45349;-61
2022/12/14 04:37:58;;;;;;;;;36.00;29.50;;;;;4.15;58.18;99458.28;5037535;28;45468;-61
2022/12/14 04:40:32;;;;;;;;;35.75;29.50;;;;;4.28;57.33;99485.13;5048751;28;45440;-61
2022/12/14 04:43:03;;;;;;;;;36.00;32.25;;;;;4.21;57.12;99500.78;5045812;28;45422;-61
2022/12/14 04:45:34;;;;;;;;;41.00;30.25;;;;;4.19;57.66;99494.53;5037560;28;45591;-62
2022/12/14 04:48:14;;;;;;;;;28.00;24.75;;;;;4.16;57.63;99505.03;5042136;28;45431;-61
2022/12/14 04:50:46;;;;;;;;;43.25;35.75;;;;;4.19;57.93;99499.84;5049526;28;45499;-62
2022/12/14 04:53:16;;;;;;;;;42.75;35.00;;;;;4.19;57.41;99499.84;5037047;28;44814;-60
2022/12/14 04:55:52;;;;;;;;;35.25;28.00;;;;;3.90;57.24;99461.00;5055666;28;45492;-62
2022/12/14 04:58:26;;;;;;;;;39.00;28.75;;;;;3.92;57.56;99465.47;5045508;28;45311;-60
2022/12/14 05:01:27;;;;;;;;;28.50;25.75;;;;;4.11;57.50;99508.34;5040241;28;45527;-62
2022/12/14 05:04:11;;;;;;;;;41.25;30.75;;;;;4.11;58.03;99513.63;5045434;28;46208;-60
2022/12/14 05:06:49;;;;;;;;;33.00;26.50;;;;;4.09;57.51;99513.56;5035324;28;45392;-61
2022/12/14 05:09:25;;;;;;;;;33.00;29.25;;;;;4.05;57.67;99517.00;5049122;28;45452;-59
2022/12/14 05:12:14;;;;;;;;;36.50;28.75;;;;;4.01;57.17;99510.72;5033944;28;45573;-61
2022/12/14 05:14:48;;;;;;;;;34.00;28.50;;;;;3.99;57.56;99495.63;5034442;28;45392;-60
2022/12/14 05:17:14;;;;;;;;;39.75;29.25;;;;;3.96;57.88;99469.13;5048030;28;45510;-62
2022/12/14 05:19:47;;;;;;;;;36.75;26.75;;;;;4.00;57.69;99478.94;5032703;28;45689;-62
2022/12/14 05:22:14;;;;;;;;;28.50;20.50;;;;;4.01;57.11;99486.94;5034914;28;47260;-62
2022/12/14 05:24:39;;;;;;;;;42.50;33.50;;;;;3.94;56.81;99486.66;5037459;28;45578;-61
2022/12/14 05:27:05;;;;;;;;;30.00;26.75;;;;;3.91;57.31;99486.56;5043295;28;45758;-61
2022/12/14 05:29:30;;;;;;;;;32.00;26.25;;;;;3.92;56.95;99491.91;5047210;28;45412;-61
2022/12/14 05:31:56;;;;;;;;;35.50;29.75;;;;;3.92;57.46;99468.13;5034979;28;45664;-61
2022/12/14 05:34:21;;;;;;;;;38.75;30.50;;;;;3.95;57.45;99485.84;5044635;28;45395;-61
2022/12/14 05:36:47;;;;;;;;;35.50;25.25;;;;;3.75;57.25;99438.53;5049527;28;45573;-61
2022/12/14 05:39:13;;;;;;;;;31.00;25.25;;;;;3.91;56.44;99458.41;5042570;28;45437;-61
2022/12/14 05:41:39;;;;;;;;;31.75;26.50;;;;;3.98;57.18;99476.25;5052584;28;45557;-61
2022/12/14 05:44:04;;;;;;;;;37.00;30.00;;;;;4.10;56.93;99491.59;5035386;28;45417;-61
2022/12/14 05:46:30;;;;;;;;;46.00;32.75;;;;;4.06;56.77;99487.09;5048355;28;45428;-62
2022/12/14 05:48:55;;;;;;;;;36.50;26.50;;;;;4.12;56.73;99497.81;5035847;28;45534;-61
2022/12/14 05:51:21;;;;;;;;;44.00;29.00;;;;;4.16;57.52;99507.66;5046285;28;45647;-62
2022/12/14 05:53:46;;;;;;;;;28.25;26.75;;;;;4.19;57.58;99514.78;5054305;28;45508;-61
2022/12/14 05:56:12;;;;;;;;;43.25;26.75;;;;;4.16;57.48;99504.13;5045561;28;45566;-63
2022/12/14 05:58:38;;;;;;;;;30.25;26.00;;;;;4.19;56.73;99523.63;5034277;28;45290;-60
2022/12/14 06:01:06;;;;;;;;;38.00;29.50;;;;;4.16;57.08;99517.34;5046767;28;46456;-61
2022/12/14 06:03:33;;;;;;;;;35.75;26.75;;;;;4.16;57.18;99525.28;5033157;28;45394;-60
2022/12/14 06:06:04;;;;;;;;;41.50;30.50;;;;;4.18;57.58;99529.75;5049665;28;45522;-59
2022/12/14 06:08:33;;;;;;;;;37.00;31.75;;;;;4.20;57.19;99530.69;5034514;28;45370;-61
2022/12/14 06:11:07;;;;;;;;;12.75;10.25;;;;;4.23;57.20;99522.84;5046600;28;45701;-60
2022/12/14 06:13:37;;;;;;;;;35.75;30.25;;;;;4.23;57.14;99525.50;5044259;28;45515;-61
2022/12/14 06:16:29;;;;;;;;;31.25;27.25;;;;;4.24;57.10;99526.44;5035140;28;45285;-61
2022/12/14 06:18:56;;;;;;;;;32.25;29.50;;;;;4.27;57.67;99536.19;5045054;28;45453;-60
2022/12/14 06:21:29;;;;;;;;;37.25;33.25;;;;;4.29;57.75;99530.09;5033231;28;46185;-59
2022/12/14 06:23:55;;;;;;;;;56.00;43.25;;;;;4.34;57.97;99535.50;5041182;28;45226;-62
2022/12/14 06:26:21;;;;;;;;;37.00;35.25;;;;;4.30;57.11;99520.41;5049276;28;45452;-61
2022/12/14 06:28:47;;;;;;;;;42.50;37.25;;;;;4.21;56.86;99499.88;5045282;28;45259;-60
2022/12/14 06:31:15;;;;;;;;;36.00;31.00;;;;;4.32;56.87;99524.88;5042494;28;45435;-61
2022/12/14 06:33:42;;;;;;;;;39.00;30.25;;;;;4.30;56.81;99525.72;5052055;28;45345;-61
2022/12/14 06:36:23;;;;;;;;;39.50;31.25;;;;;4.36;57.32;99529.44;5036734;28;45462;-62
2022/12/14 06:39:01;;;;;;;;;38.50;29.50;;;;;4.33;57.01;99520.53;5052021;28;45496;-60
2022/12/14 06:41:27;;;;;;;;;36.00;30.25;;;;;4.37;57.49;99522.41;5036077;28;45422;-61
2022/12/14 06:43:53;;;;;;;;;38.50;33.50;;;;;4.42;57.53;99519.06;5057801;28;45742;-63
2022/12/14 06:46:20;;;;;;;;;57.00;39.25;;;;;4.47;57.86;99535.06;5047028;28;45387;-61
2022/12/14 06:48:53;;;;;;;;;37.50;30.50;;;;;4.45;57.90;99522.66;5040670;28;45687;-61
2022/12/14 06:51:20;;;;;;;;;47.50;33.75;;;;;4.51;57.35;99529.03;5046096;28;46080;-62
2022/12/14 06:53:48;;;;;;;;;41.00;35.50;;;;;4.52;57.45;99528.19;5038654;28;45389;-61
2022/12/14 06:56:16;;;;;;;;;45.25;36.75;;;;;4.49;58.17;99517.50;5047096;28;45356;-62
2022/12/14 06:58:42;;;;;;;;;30.00;28.25;;;;;4.51;58.07;99521.09;5036825;28;45624;-60
2022/12/14 07:01:11;;;;;;;;;37.25;29.75;;;;;4.54;57.59;99534.41;5051248;28;46520;-62
2022/12/14 07:03:37;;;;;;;;;36.00;27.50;;;;;4.56;58.42;99537.09;5036774;28;45635;-62
2022/12/14 07:06:03;;;;;;;;;31.75;31.50;;;;;4.61;58.34;99544.31;5050167;28;45375;-60
2022/12/14 07:08:30;;;;;;;;;43.50;37.25;;;;;4.61;58.40;99554.00;5036404;28;45439;-61
2022/12/14 07:10:59;;;;;;;;;36.25;28.50;;;;;4.51;58.03;99536.94;5049710;28;46419;-61
2022/12/14 07:13:25;;;;;;;;;40.50;36.25;;;;;4.55;58.61;99557.38;5035479;28;45303;-60
2022/12/14 07:15:58;;;;;;;;;50.00;39.75;;;;;4.58;58.62;99575.06;5052354;28;45310;-61
2022/12/14 07:18:24;;;;;;;;;41.00;36.50;;;;;4.52;58.81;99559.91;5047167;28;45349;-60
2022/12/14 07:20:57;;;;;;;;;45.25;31.25;;;;;4.56;58.40;99574.13;5036956;28;45946;-60
2022/12/14 07:23:23;;;;;;;;;48.75;36.00;;;;;4.56;58.63;99588.25;5047519;28;45564;-60
2022/12/14 07:25:49;;;;;;;;;42.00;33.00;;;;;4.24;58.48;99537.00;5035183;28;45529;-61
2022/12/14 07:28:15;;;;;;;;;59.50;43.00;;;;;4.49;59.18;99583.63;5051071;28;45513;-63
2022/12/14 07:30:40;;;;;;;;;54.25;43.00;;;;;4.51;59.13;99583.66;5046583;28;46203;-62
2022/12/14 07:33:05;;;;;;;;;47.50;37.75;;;;;4.55;59.18;99589.13;5034825;28;45314;-62
2022/12/14 07:35:31;;;;;;;;;35.25;32.25;;;;;4.49;59.00;99582.69;5041973;28;45606;-62
2022/12/14 07:37:56;;;;;;;;;63.00;51.75;;;;;4.51;58.53;99586.31;5042484;28;45553;-62
2022/12/14 07:40:21;;;;;;;;;49.75;41.75;;;;;4.53;58.31;99609.31;5050706;28;45532;-63
2022/12/14 07:42:48;;;;;;;;;54.50;40.25;;;;;4.52;59.48;99619.84;5037708;28;45463;-62
2022/12/14 07:45:14;;;;;;;;;42.75;35.00;;;;;4.52;58.83;99611.91;5037997;28;45507;-63
2022/12/14 07:47:39;;;;;;;;;57.25;42.25;;;;;4.51;58.96;99612.78;5045979;28;45639;-63
2022/12/14 07:50:05;;;;;;;;;42.00;35.25;;;;;4.51;58.33;99615.41;5044470;28;49584;-64
2022/12/14 07:52:30;;;;;;;;;45.75;37.25;;;;;4.49;58.85;99618.00;5039356;28;45720;-63
2022/12/14 07:54:56;;;;;;;;;44.75;29.25;;;;;4.35;58.99;99606.97;5042669;28;45357;-62
2022/12/14 07:57:21;;;;;;;;;38.50;30.75;;;;;4.38;58.80;99604.41;5038844;28;45429;-61
2022/12/14 07:59:48;;;;;;;;;48.00;32.25;;;;;4.41;58.76;99614.22;5051767;28;46635;-64
2022/12/14 08:02:13;;;;;;;;;45.50;37.00;;;;;4.46;58.06;99617.00;5038375;28;46569;-63
2022/12/14 08:04:38;;;;;;;;;52.25;39.50;;;;;4.46;58.67;99617.91;5039060;28;45593;-62
2022/12/14 08:07:04;;;;;;;;;33.75;29.00;;;;;4.17;58.99;99564.06;5049572;28;45632;-62
2022/12/14 08:09:29;;;;;;;;;36.75;30.25;;;;;4.45;58.98;99609.91;5044029;28;46540;-65
2022/12/14 08:11:54;;;;;;;;;46.75;37.00;;;;;4.47;58.53;99621.44;5048226;28;45374;-62
2022/12/14 08:14:20;;;;;;;;;46.00;39.00;;;;;4.27;58.86;99587.31;5037724;28;51197;-62
2022/12/14 08:16:47;;;;;;;;;50.50;40.50;;;;;4.45;57.66;99617.84;5040954;28;45433;-64
2022/12/14 08:19:12;;;;;;;;;45.00;39.50;;;;;4.32;58.17;99598.91;5040326;28;45422;-64
2022/12/14 08:21:39;;;;;;;;;48.25;38.75;;;;;4.42;57.84;99618.63;5055340;28;45357;-63
2022/12/14 08:24:05;;;;;;;;;47.50;37.00;;;;;4.41;57.40;99624.78;5036869;28;45472;-64
2022/12/14 08:26:30;;;;;;;;;41.00;32.00;;;;;4.42;57.37;99624.84;5038030;28;45785;-64
2022/12/14 08:28:55;;;;;;;;;37.50;33.25;;;;;4.46;57.60;99627.59;5035085;28;46354;-64
2022/12/14 08:31:23;;;;;;;;;47.50;31.50;;;;;4.48;57.65;99628.53;5042409;28;45621;-64
2022/12/14 08:33:49;;;;;;;;;39.25;34.25;;;;;4.49;57.32;99627.66;5048989;28;45509;-63
2022/12/14 08:36:21;;;;;;;;;55.50;41.00;;;;;4.53;57.01;99627.81;5041126;28;45431;-63
2022/12/14 08:38:54;;;;;;;;;32.25;24.50;;;;;4.48;57.37;99625.88;5042685;28;46256;-62
2022/12/14 08:41:20;;;;;;;;;45.75;32.75;;;;;4.27;57.41;99594.34;5053477;28;45759;-60
2022/12/14 08:43:49;;;;;;;;;42.50;31.50;;;;;4.49;57.78;99623.28;5048731;28;44895;-61
2022/12/14 08:46:15;;;;;;;;;37.75;32.25;;;;;4.65;58.05;99631.72;5047458;28;45080;-62
2022/12/14 08:48:40;;;;;;;;;47.00;34.50;;;;;4.54;57.44;99610.22;5038883;28;45917;-62
2022/12/14 08:51:08;;;;;;;;;41.25;36.25;;;;;4.52;57.20;99639.28;5036926;28;45605;-62
2022/12/14 08:53:34;;;;;;;;;41.50;35.25;;;;;4.53;57.02;99633.09;5036377;28;45998;-61
2022/12/14 08:56:09;;;;;;;;;46.00;36.25;;;;;4.60;57.69;99647.44;5048520;28;45556;-60
2022/12/14 08:58:35;;;;;;;;;47.75;38.75;;;;;4.65;57.96;99644.94;5041043;28;45706;-61
2022/12/14 09:01:05;;;;;;;;;37.75;36.50;;;;;4.61;56.59;99633.38;5036323;28;45452;-62
2022/12/14 09:03:32;;;;;;;;;52.00;36.75;;;;;4.72;57.13;99649.56;5034650;28;45552;-62
2022/12/14 09:06:02;;;;;;;;;49.50;40.00;;;;;4.76;56.29;99660.31;5037159;28;45552;-61
2022/12/14 09:08:27;;;;;;;;;58.00;42.25;;;;;4.81;56.83;99663.09;5040318;28;46082;-60
2022/12/14 09:10:53;;;;;;;;;43.25;34.50;;;;;4.85;56.30;99654.44;5035817;28;45574;-64
2022/12/14 09:13:18;;;;;;;;;62.00;49.00;;;;;4.84;56.47;99646.44;5040782;28;45421;-61
2022/12/14 09:15:44;;;;;;;;;39.75;32.00;;;;;4.90;55.81;99658.13;5047776;28;45463;-63
2022/12/14 09:18:09;;;;;;;;;51.75;37.50;;;;;4.87;55.68;99654.47;5033174;28;46600;-64
2022/12/14 09:20:34;;;;;;;;;48.25;37.00;;;;;4.82;55.58;99654.31;5046428;28;50396;-65
2022/12/14 09:23:00;;;;;;;;;43.75;33.50;;;;;4.90;56.10;99657.19;5034103;28;45518;-61
2022/12/14 09:25:25;;;;;;;;;51.25;36.75;;;;;4.93;54.77;99678.47;5048765;28;45418;-63
2022/12/14 09:27:50;;;;;;;;;50.50;36.50;;;;;4.95;55.74;99685.63;5034516;28;46354;-64
2022/12/14 09:30:16;;;;;;;;;47.00;39.25;;;;;4.88;55.60;99672.13;5045994;28;45507;-62
2022/12/14 09:32:43;;;;;;;;;44.25;32.75;;;;;4.97;55.78;99683.03;5035562;28;45284;-61
2022/12/14 09:35:09;;;;;;;;;43.75;36.50;;;;;5.09;56.15;99695.75;5049023;28;45294;-63
2022/12/14 09:37:34;;;;;;;;;41.75;36.00;;;;;4.85;55.24;99645.56;5038953;28;47444;-63
2022/12/14 09:40:00;;;;;;;;;37.25;28.50;;;;;5.19;55.24;99702.22;5052971;28;46105;-64
2022/12/14 09:42:37;;;;;;;;;45.75;31.75;;;;;5.25;54.29;99702.41;5031864;28;45369;-62
2022/12/14 09:45:28;;;;;;;;;51.25;40.50;;;;;5.22;54.65;99704.97;5050531;28;45660;-62
2022/12/14 09:48:06;;;;;;;;;35.50;29.00;;;;;5.28;54.37;99698.13;5043888;28;45588;-62
2022/12/14 09:50:32;;;;;;;;;48.25;34.75;;;;;5.30;54.38;99701.69;5038577;28;45507;-62
2022/12/14 09:53:04;;;;;;;;;53.75;38.25;;;;;5.28;54.03;99689.25;5043887;28;45419;-61
2022/12/14 09:55:48;;;;;;;;;46.25;39.00;;;;;5.40;54.84;99712.59;5036972;28;45501;-63
2022/12/14 09:58:29;;;;;;;;;48.50;40.25;;;;;5.17;54.42;99662.47;5041569;28;45917;-62
2022/12/14 10:01:13;;;;;;;;;51.00;40.75;;;;;5.43;53.87;99700.31;5039518;28;45250;-63
2022/12/14 10:03:47;;;;;;;;;46.75;35.25;;;;;5.41;53.54;99691.44;5039406;28;45462;-62
2022/12/14 10:06:24;;;;;;;;;45.75;36.00;;;;;5.49;54.10;99696.94;5054060;28;45816;-62
2022/12/14 10:08:57;;;;;;;;;70.25;52.75;;;;;5.43;53.28;99686.16;5049373;28;48286;-62
2022/12/14 10:11:46;;;;;;;;;44.25;37.75;;;;;5.48;52.74;99698.72;5042984;28;45405;-62
2022/12/14 10:14:33;;;;;;;;;39.50;33.00;;;;;5.52;53.28;99695.28;5039606;28;45387;-62
2022/12/14 10:17:18;;;;;;;;;44.00;31.50;;;;;5.52;51.82;99705.88;5049289;28;45584;-62
2022/12/14 10:19:55;;;;;;;;;47.00;39.75;;;;;5.57;52.03;99708.66;5050475;28;46357;-63
2022/12/14 10:22:35;;;;;;;;;61.00;41.50;;;;;5.63;51.58;99708.84;5038069;28;45542;-62
2022/12/14 10:25:32;;;;;;;;;61.00;48.00;;;;;5.60;52.50;99686.69;5049058;28;45290;-68
2022/12/14 10:28:15;;;;;;;;;46.00;33.75;;;;;5.71;51.38;99698.50;5040871;28;45596;-63
2022/12/14 10:30:42;;;;;;;;;53.00;41.25;;;;;5.77;52.42;99697.75;5038758;28;45591;-63
2022/12/14 10:33:13;;;;;;;;;57.75;45.00;;;;;5.86;51.92;99693.63;5050277;28;45306;-62
2022/12/14 10:36:00;;;;;;;;;66.25;46.50;;;;;5.94;52.27;99699.16;5045351;28;45489;-61
2022/12/14 10:38:42;;;;;;;;;54.25;43.50;;;;;5.75;50.79;99676.50;5048602;28;47192;-63
2022/12/14 10:41:18;;;;;;;;;54.25;42.50;;;;;5.96;50.88;99694.81;5038849;28;46625;-63
2022/12/14 10:44:01;;;;;;;;;50.50;36.25;;;;;5.98;51.10;99693.09;5038249;28;45349;-62
2022/12/14 10:46:51;;;;;;;;;45.25;40.00;;;;;5.98;51.10;99700.16;5044244;28;45694;-61
2022/12/14 10:49:43;;;;;;;;;53.50;42.75;;;;;5.91;50.79;99688.44;5043534;28;45564;-62
2022/12/14 10:52:16;;;;;;;;;57.25;45.75;;;;;5.95;49.94;99708.00;5045880;28;45680;-62
2022/12/14 10:55:21;;;;;;;;;46.00;38.50;;;;;5.79;50.56;99689.00;5048743;28;45425;-63
2022/12/14 10:57:47;;;;;;;;;52.00;40.00;;;;;5.89;49.94;99709.63;5038144;28;45797;-61
2022/12/14 11:00:15;;;;;;;;;48.00;39.50;;;;;5.83;49.92;99711.19;5042351;28;45509;-62
2022/12/14 11:02:49;;;;;;;;;54.25;40.00;;;;;5.80;50.36;99709.34;5063042;28;46213;-63
2022/12/14 11:05:30;;;;;;;;;55.00;38.50;;;;;5.82;50.87;99712.94;5061318;28;45374;-62
2022/12/14 11:07:56;;;;;;;;;57.25;42.75;;;;;5.81;49.96;99723.50;5053830;28;45127;-62
2022/12/14 11:10:23;;;;;;;;;55.25;39.50;;;;;5.76;49.88;99719.81;5071369;28;45137;-61
2022/12/14 11:13:13;;;;;;;;;59.75;39.75;;;;;5.72;50.70;99721.47;5061421;28;46561;-62
2022/12/14 11:15:38;;;;;;;;;67.75;50.50;;;;;5.77;51.06;99716.31;5062194;28;44863;-64
2022/12/14 11:18:15;;;;;;;;;56.25;45.25;;;;;5.81;51.36;99720.88;5064747;28;45114;-63
2022/12/14 11:21:04;;;;;;;;;54.50;41.00;;;;;5.62;50.08;99692.91;5058466;28;45235;-61
2022/12/14 11:23:37;;;;;;;;;63.50;49.75;;;;;5.76;50.20;99711.84;5057298;28;45743;-63
2022/12/14 11:26:10;;;;;;;;;49.00;38.00;;;;;5.77;50.61;99721.63;5059455;28;45242;-64
2022/12/14 11:28:45;;;;;;;;;63.75;48.75;;;;;5.81;49.98;99715.56;5054712;28;45161;-64
2022/12/14 11:31:20;;;;;;;;;61.25;42.50;;;;;5.72;49.78;99693.25;5059010;28;45149;-62
2022/12/14 11:33:49;;;;;;;;;49.75;39.25;;;;;5.81;49.96;99711.16;5050565;28;46190;-61
2022/12/14 11:36:37;;;;;;;;;63.75;48.00;;;;;5.83;50.27;99716.50;5058122;28;45174;-65
2022/12/14 11:39:21;;;;;;;;;54.00;42.25;;;;;5.73;49.89;99708.28;5060473;28;45362;-66
2022/12/14 11:42:00;;;;;;;;;56.75;42.50;;;;;5.91;49.79;99733.53;5057688;28;45342;-63
2022/12/14 11:44:33;;;;;;;;;44.75;37.75;;;;;5.98;50.65;99730.22;5050349;28;45616;-63
2022/12/14 11:46:59;;;;;;;;;48.75;40.75;;;;;6.02;49.67;99734.75;5040688;28;45422;-62
2022/12/14 11:49:30;;;;;;;;;53.00;43.00;;;;;6.07;50.00;99721.59;5046497;28;45497;-61
2022/12/14 11:52:00;;;;;;;;;58.00;43.00;;;;;6.11;50.01;99722.63;5038926;28;45432;-62
2022/12/14 11:54:26;;;;;;;;;52.75;41.75;;;;;6.07;49.29;99732.22;5039644;28;46614;-62
2022/12/14 11:56:58;;;;;;;;;54.00;42.50;;;;;6.09;49.16;99715.50;5045353;28;45600;-63